EKHG weather

Herning Airport
Herning, Central Jutland, Denmark

Public forecast

Using degrees Celsius for public forecast. Weather courtesy of forecast.io.

Closest aviation weather report (METAR) to Herning Airport

Closest report is Karup Airport, 7.3 nm (13.5 km) NNE. Retrieved 2019/10/17 12:20 UTC (10 minutes ago):

EKKA 171220Z AUTO 24011KT 9999 FEW023/// BKN052/// 14/09 Q1006 NOSIG

Closest aviation forecast (TAF) to Herning Airport

Closest forecast is Karup Airport, 7.3 nm (13.5 km) NNE. Retrieved 2019/10/17 12:30 UTC (0 seconds ago):

TAF EKKA 171103Z 1712/1812 22010KT 9999 SCT030 SCT060 TEMPO 1712/1714 BKN012 TEMPO 1714/1719 7000 -SHRA SCT015TCU BECMG 1717/1720 16005KT TEMPO 1719/1802 4000 -SHRA BR SCT015TCU TEMPO 1802/1809 1200 -SHRA MIFG BKN003 SCT020CB TEMPO 1809/1812 4000 -SHRA BKN008 BKN015CB